sensor_id;sensor_type;location;lat;lon;timestamp;temperature;humidity
34008;DHT22;41085;51.594;7.138;2022-09-27T06:28:48;20.10;91.80
34008;DHT22;41085;51.594;7.138;2022-09-27T06:33:40;19.90;91.80
34008;DHT22;41085;51.594;7.138;2022-09-27T07:06:52;19.90;91.60
34008;DHT22;41085;51.594;7.138;2022-09-27T07:11:46;20.60;92.50
34008;DHT22;41085;51.594;7.138;2022-09-27T07:16:03;19.80;92.60
34008;DHT22;41085;51.594;7.138;2022-09-27T07:20:09;19.80;91.80
34008;DHT22;41085;51.594;7.138;2022-09-27T07:24:26;19.80;91.80
34008;DHT22;41085;51.594;7.138;2022-09-27T07:33:26;19.90;91.60
34008;DHT22;41085;51.594;7.138;2022-09-27T07:43:08;20.20;91.60
34008;DHT22;41085;51.594;7.138;2022-09-27T07:52:44;21.00;91.70
34008;DHT22;41085;51.594;7.138;2022-09-27T07:57:10;20.00;91.50
34008;DHT22;41085;51.594;7.138;2022-09-27T08:31:52;19.80;87.10
34008;DHT22;41085;51.594;7.138;2022-09-27T08:36:52;19.50;89.70
34008;DHT22;41085;51.594;7.138;2022-09-27T08:50:58;19.70;90.50
34008;DHT22;41085;51.594;7.138;2022-09-27T08:56:06;19.80;90.60
34008;DHT22;41085;51.594;7.138;2022-09-27T09:00:42;19.80;90.60
34008;DHT22;41085;51.594;7.138;2022-09-27T09:34:22;21.80;91.40
34008;DHT22;41085;51.594;7.138;2022-09-27T09:39:23;19.90;91.20
34008;DHT22;41085;51.594;7.138;2022-09-27T09:44:14;20.00;91.00
34008;DHT22;41085;51.594;7.138;2022-09-27T09:48:56;19.60;83.20
34008;DHT22;41085;51.594;7.138;2022-09-27T09:53:56;19.10;83.90
34008;DHT22;41085;51.594;7.138;2022-09-27T10:08:44;18.70;82.00
34008;DHT22;41085;51.594;7.138;2022-09-27T10:13:34;18.50;81.90
34008;DHT22;41085;51.594;7.138;2022-09-27T10:18:04;18.50;81.40
34008;DHT22;41085;51.594;7.138;2022-09-27T10:22:16;18.30;83.30
34008;DHT22;41085;51.594;7.138;2022-09-27T10:26:19;18.30;82.60
34008;DHT22;41085;51.594;7.138;2022-09-27T10:35:56;19.50;89.00
34008;DHT22;41085;51.594;7.138;2022-09-27T10:40:26;21.30;86.20
34008;DHT22;41085;51.594;7.138;2022-09-27T10:44:39;19.70;84.80
34008;DHT22;41085;51.594;7.138;2022-09-27T10:49:29;18.30;86.20
34008;DHT22;41085;51.594;7.138;2022-09-27T10:53:33;19.60;83.50
34008;DHT22;41085;51.594;7.138;2022-09-27T10:58:13;19.30;84.60
34008;DHT22;41085;51.594;7.138;2022-09-27T11:02:23;18.70;86.10
34008;DHT22;41085;51.594;7.138;2022-09-27T11:26:03;19.60;84.60
34008;DHT22;41085;51.594;7.138;2022-09-27T11:30:15;19.60;84.80
34008;DHT22;41085;51.594;7.138;2022-09-27T11:35:04;19.50;84.80
34008;DHT22;41085;51.594;7.138;2022-09-27T11:39:28;19.60;85.00
34008;DHT22;41085;51.594;7.138;2022-09-27T11:52:47;19.50;85.10
34008;DHT22;41085;51.594;7.138;2022-09-27T11:56:52;19.70;85.60
34008;DHT22;41085;51.594;7.138;2022-09-27T12:05:55;19.70;85.30
34008;DHT22;41085;51.594;7.138;2022-09-27T12:10:03;19.70;85.40
34008;DHT22;41085;51.594;7.138;2022-09-27T12:14:48;19.70;85.50
34008;DHT22;41085;51.594;7.138;2022-09-27T12:18:51;19.70;85.50
34008;DHT22;41085;51.594;7.138;2022-09-27T12:23:10;19.70;85.50
34008;DHT22;41085;51.594;7.138;2022-09-27T12:27:37;19.80;85.50
34008;DHT22;41085;51.594;7.138;2022-09-27T12:31:46;19.70;85.50
34008;DHT22;41085;51.594;7.138;2022-09-27T12:35:53;19.70;85.50
34008;DHT22;41085;51.594;7.138;2022-09-27T12:44:38;19.70;87.00
34008;DHT22;41085;51.594;7.138;2022-09-27T13:12:16;19.80;85.60
34008;DHT22;41085;51.594;7.138;2022-09-27T13:16:18;19.70;85.70
34008;DHT22;41085;51.594;7.138;2022-09-27T13:29:21;20.00;86.80
34008;DHT22;41085;51.594;7.138;2022-09-27T13:33:55;19.80;86.00
34008;DHT22;41085;51.594;7.138;2022-09-27T13:37:57;20.20;87.60
34008;DHT22;41085;51.594;7.138;2022-09-27T13:42:47;19.80;86.30
34008;DHT22;41085;51.594;7.138;2022-09-27T13:46:32;20.70;86.70
34008;DHT22;41085;51.594;7.138;2022-09-27T13:50:52;20.00;86.40
34008;DHT22;41085;51.594;7.138;2022-09-27T13:54:57;19.90;86.30
34008;DHT22;41085;51.594;7.138;2022-09-27T13:59:03;19.90;86.30
34008;DHT22;41085;51.594;7.138;2022-09-27T14:07:54;19.90;86.40
34008;DHT22;41085;51.594;7.138;2022-09-27T14:11:58;20.00;86.40
34008;DHT22;41085;51.594;7.138;2022-09-27T14:21:38;19.90;86.50
34008;DHT22;41085;51.594;7.138;2022-09-27T14:25:45;21.10;87.80
34008;DHT22;41085;51.594;7.138;2022-09-27T14:29:50;20.10;87.20
34008;DHT22;41085;51.594;7.138;2022-09-27T14:34:05;19.80;86.60
34008;DHT22;41085;51.594;7.138;2022-09-27T14:38:11;19.90;86.40
34008;DHT22;41085;51.594;7.138;2022-09-27T14:42:21;19.90;86.40
34008;DHT22;41085;51.594;7.138;2022-09-27T14:46:29;20.00;87.30
34008;DHT22;41085;51.594;7.138;2022-09-27T14:50:30;19.90;86.10
34008;DHT22;41085;51.594;7.138;2022-09-27T14:54:31;19.80;86.00
34008;DHT22;41085;51.594;7.138;2022-09-27T14:58:31;19.90;86.00
34008;DHT22;41085;51.594;7.138;2022-09-27T15:07:30;19.90;85.90
34008;DHT22;41085;51.594;7.138;2022-09-27T15:11:31;20.20;86.30
34008;DHT22;41085;51.594;7.138;2022-09-27T15:15:36;19.90;85.90
34008;DHT22;41085;51.594;7.138;2022-09-27T15:19:39;19.90;85.80
34008;DHT22;41085;51.594;7.138;2022-09-27T15:23:54;19.90;85.90
34008;DHT22;41085;51.594;7.138;2022-09-27T15:27:56;19.90;85.70
34008;DHT22;41085;51.594;7.138;2022-09-27T15:32:04;20.00;85.80
34008;DHT22;41085;51.594;7.138;2022-09-27T15:36:08;19.90;85.70
34008;DHT22;41085;51.594;7.138;2022-09-27T15:48:37;19.90;85.50
34008;DHT22;41085;51.594;7.138;2022-09-27T16:02:14;18.70;84.70
34008;DHT22;41085;51.594;7.138;2022-09-27T16:06:15;18.60;84.60
34008;DHT22;41085;51.594;7.138;2022-09-27T16:10:20;19.90;85.50
34008;DHT22;41085;51.594;7.138;2022-09-27T16:14:22;19.90;85.30
34008;DHT22;41085;51.594;7.138;2022-09-27T16:18:22;19.90;85.30
34008;DHT22;41085;51.594;7.138;2022-09-27T16:22:23;20.30;85.60
34008;DHT22;41085;51.594;7.138;2022-09-27T16:26:24;19.70;85.20
34008;DHT22;41085;51.594;7.138;2022-09-27T16:30:24;20.20;85.40
34008;DHT22;41085;51.594;7.138;2022-09-27T16:34:26;20.00;86.00
34008;DHT22;41085;51.594;7.138;2022-09-27T16:38:42;19.90;85.30
34008;DHT22;41085;51.594;7.138;2022-09-27T16:42:44;19.90;85.20
34008;DHT22;41085;51.594;7.138;2022-09-27T16:46:46;19.90;85.20
34008;DHT22;41085;51.594;7.138;2022-09-27T16:50:47;19.90;85.10
34008;DHT22;41085;51.594;7.138;2022-09-27T16:55:06;19.90;85.10
34008;DHT22;41085;51.594;7.138;2022-09-27T16:59:07;19.90;85.10
34008;DHT22;41085;51.594;7.138;2022-09-27T17:08:17;19.70;84.90
34008;DHT22;41085;51.594;7.138;2022-09-27T17:12:18;19.80;86.10
34008;DHT22;41085;51.594;7.138;2022-09-27T17:16:21;19.80;85.60
34008;DHT22;41085;51.594;7.138;2022-09-27T17:35:40;19.70;84.80
34008;DHT22;41085;51.594;7.138;2022-09-27T17:39:43;20.00;88.00
34008;DHT22;41085;51.594;7.138;2022-09-27T17:43:47;20.00;85.80
34008;DHT22;41085;51.594;7.138;2022-09-27T19:57:05;19.60;84.30
34008;DHT22;41085;51.594;7.138;2022-09-27T20:02:15;20.20;85.20
34008;DHT22;41085;51.594;7.138;2022-09-27T20:06:37;19.90;84.40
34008;DHT22;41085;51.594;7.138;2022-09-27T20:10:38;19.70;84.70
34008;DHT22;41085;51.594;7.138;2022-09-27T20:14:38;19.80;84.40
34008;DHT22;41085;51.594;7.138;2022-09-27T20:18:43;19.70;84.30
34008;DHT22;41085;51.594;7.138;2022-09-27T20:22:44;19.70;84.30
34008;DHT22;41085;51.594;7.138;2022-09-27T20:26:44;19.80;84.40
34008;DHT22;41085;51.594;7.138;2022-09-27T20:30:58;19.60;84.20
34008;DHT22;41085;51.594;7.138;2022-09-27T20:34:58;19.70;84.20
34008;DHT22;41085;51.594;7.138;2022-09-27T20:39:02;19.80;84.30
34008;DHT22;41085;51.594;7.138;2022-09-27T20:43:03;19.70;84.30
34008;DHT22;41085;51.594;7.138;2022-09-27T20:47:03;19.80;84.30
34008;DHT22;41085;51.594;7.138;2022-09-27T20:51:05;19.70;84.30
34008;DHT22;41085;51.594;7.138;2022-09-27T20:55:06;19.70;84.20
34008;DHT22;41085;51.594;7.138;2022-09-27T20:59:18;19.70;84.30
34008;DHT22;41085;51.594;7.138;2022-09-27T21:03:19;19.60;84.20
34008;DHT22;41085;51.594;7.138;2022-09-27T21:07:20;18.50;84.10
34008;DHT22;41085;51.594;7.138;2022-09-27T21:11:21;19.90;84.40
34008;DHT22;41085;51.594;7.138;2022-09-27T21:15:21;19.70;84.50
34008;DHT22;41085;51.594;7.138;2022-09-27T21:19:22;19.70;84.30
34008;DHT22;41085;51.594;7.138;2022-09-27T21:23:23;19.70;84.40
34008;DHT22;41085;51.594;7.138;2022-09-27T21:27:23;19.70;84.50
34008;DHT22;41085;51.594;7.138;2022-09-27T21:31:29;19.70;84.30
34008;DHT22;41085;51.594;7.138;2022-09-27T21:35:31;19.70;84.40
34008;DHT22;41085;51.594;7.138;2022-09-27T21:39:31;20.10;84.70
34008;DHT22;41085;51.594;7.138;2022-09-27T21:43:36;19.60;84.30
34008;DHT22;41085;51.594;7.138;2022-09-27T21:47:39;19.60;84.30
34008;DHT22;41085;51.594;7.138;2022-09-27T21:51:40;19.60;84.30
34008;DHT22;41085;51.594;7.138;2022-09-27T21:55:53;19.70;84.30
34008;DHT22;41085;51.594;7.138;2022-09-27T21:59:54;19.60;84.40
34008;DHT22;41085;51.594;7.138;2022-09-27T22:03:57;19.80;84.40
34008;DHT22;41085;51.594;7.138;2022-09-27T22:07:58;19.60;84.30
34008;DHT22;41085;51.594;7.138;2022-09-27T22:11:58;19.60;84.30
34008;DHT22;41085;51.594;7.138;2022-09-27T22:16:07;19.60;84.30
34008;DHT22;41085;51.594;7.138;2022-09-27T22:20:08;19.60;85.00
34008;DHT22;41085;51.594;7.138;2022-09-27T22:24:15;19.60;84.40
34008;DHT22;41085;51.594;7.138;2022-09-27T22:28:16;19.60;84.50
34008;DHT22;41085;51.594;7.138;2022-09-27T22:32:17;19.60;84.60
34008;DHT22;41085;51.594;7.138;2022-09-27T22:36:17;19.50;84.60
34008;DHT22;41085;51.594;7.138;2022-09-27T22:40:18;19.60;84.70
34008;DHT22;41085;51.594;7.138;2022-09-27T22:44:18;19.60;84.80
34008;DHT22;41085;51.594;7.138;2022-09-27T22:48:19;19.50;84.60
34008;DHT22;41085;51.594;7.138;2022-09-27T22:52:20;19.60;84.90
34008;DHT22;41085;51.594;7.138;2022-09-27T22:56:20;19.60;84.90
34008;DHT22;41085;51.594;7.138;2022-09-27T23:00:21;19.60;85.20
34008;DHT22;41085;51.594;7.138;2022-09-27T23:04:22;19.90;85.50
34008;DHT22;41085;51.594;7.138;2022-09-27T23:08:22;19.50;85.70
34008;DHT22;41085;51.594;7.138;2022-09-27T23:12:23;19.50;86.30
34008;DHT22;41085;51.594;7.138;2022-09-27T23:16:24;19.40;86.70
34008;DHT22;41085;51.594;7.138;2022-09-27T23:20:25;19.50;87.20
34008;DHT22;41085;51.594;7.138;2022-09-27T23:24:25;19.40;86.10
34008;DHT22;41085;51.594;7.138;2022-09-27T23:28:27;19.40;86.40
34008;DHT22;41085;51.594;7.138;2022-09-27T23:32:28;19.50;86.10
34008;DHT22;41085;51.594;7.138;2022-09-27T23:36:28;19.50;86.20
34008;DHT22;41085;51.594;7.138;2022-09-27T23:41:03;19.50;86.20
34008;DHT22;41085;51.594;7.138;2022-09-27T23:45:55;18.80;85.90
34008;DHT22;41085;51.594;7.138;2022-09-27T23:50:05;18.20;89.10
34008;DHT22;41085;51.594;7.138;2022-09-27T23:54:10;19.30;86.10
34008;DHT22;41085;51.594;7.138;2022-09-27T23:58:20;19.90;89.20
